Anniston Metro, AL

3:17 PM CST on January 22, 2017 (GMT -0600)
Anniston Metro | | Change Station
Active Advisory: Wind Advisory

Elev 610 ft 33.59 °N, 85.86 °W | Updated 12 minutes ago

Thunderstorms and Rain
Thunderstorm Rain Mist
61 °F
Feels Like 61 °F
N
16
Wind Variable Wind from North
Gusts 23 mph

Today
High -- | Low -- °F
--% Chance of Precip.
Yesterday
High -- | Low -- °F
Precip. -- in
Pressure 29.18 in
Visibility 3.0 miles
Clouds Few 2100 ft
Overcast 3400 ft
Dew Point 57 °F
Humidity 87%
Rainfall 0.98 in
Snow Depth Not available.
6:45 AM 5:05 PM
Waning Crescent, 24% visible
SPECI KANB 222105Z AUTO 01014G20KT 3SM TSRA BR FEW021 OVC034 16/14 A2918 RMK AO2 LTG DSNT N AND NE PRESFR P0005 T01610139
Pressure 29.18 in
Visibility 3.0 miles
Clouds Few 2100 ft
Overcast 3400 ft
Dew Point 57 °F
Humidity 87%
Rainfall 0.98 in
Snow Depth Not available.
6:45 AM 5:05 PM
Waning Crescent, 24% visible
SPECI KANB 222105Z AUTO 01014G20KT 3SM TSRA BR FEW021 OVC034 16/14 A2918 RMK AO2 LTG DSNT N AND NE PRESFR P0005 T01610139

Get Your Daily Forecast Email!

Thanks for signing up!

Be on the lookout for a verification email in your inbox.

You'll start receiving the daily forecast at 8 AM.

×

10-Day Weather Forecast

Almanac

Astronomy

Jan. 22, 2017 Rise Set
Actual Time
Civil Twilight
Nautical Twilight
Astronomical Twilight
Moon
Length of Visible Light
Length of Day
Tomorrow will be .
, % of the Moon is Illuminated

Today's Extremes

State Highs State Lows

Community

WunderPhotos

Upload Photos

1,962,540 photos uploaded!

WunderBlog® & News

Nearby

Air Quality

  Air Quality AQ Index Pollutant
Not available.

Snow Depth

Station Depth Elevation

Earthquake Activity

City Distance Mag. Time & Date
Minimum magnitude displayed is 2.5.

Coastal Water Temperatures

Place Temperature

Stations

Nearby Weather Stations

Station Location Temp. Windchill Dew Point Humidity Wind Precip. Elev Updated Type
                   

Watches & Warnings

Wind Advisory
Issued: 9:29 AM CST Jan. 22, 2017 – National Weather Service

... Wind Advisory remains in effect from midnight tonight to 6 PM
CST Monday...

* timing... winds will be gusty Monday as strong low pressure
system moves to our east... generally from midnight tonight
through 6 PM Monday.

* Winds... winds will be sustained 20 to 30 mph with higher
gusts... especially for higher elevations.

* Impacts... strong winds can break tree branches or down weaker
trees... particularly in areas with saturated soils due to
recent heavy rains.

Precautionary/preparedness actions...

A Wind Advisory means that winds of 35 mph are expected. Winds
this strong can make driving difficult... especially for high
profile vehicles. Use extra caution.